Azure — ZCEE2 — position and weather

sailwx.info

Track history (hours):
 
Tides and Currents Weather Stations Pressure Air Temp Water Temp Dewpoint Dewpoint Depression Visibility Wind Speed Wind Dir Waves Ship Positions

Azure

Last reported at 2015-May-02 23:33 UTC. Time now 2015-May-05 06:13 UTC.
Position N 59°08' E 004°12'.

Length 289 m; draft 8.6 m.

Type: Ship. MMSI: 310610000.

Date/timePositionNaut miles runAvg speedWind from/ knotsBaromVisibWave heightAir tempDewpointWater temp
2015-May-02 23:33N 59°08' E 004°12'11124.3
2015-May-02 19:00N 57°18' E 003°42'28220.5 360 / 171013.710.8 7.1 5.1 9.0
2015-May-02 05:15N 52°40' E 002°24'1420.2
2015-May-02 04:33N 52°26' E 002°20'2921.3
2015-May-02 03:12N 51°57' E 002°15'1421.5
2015-May-02 02:33N 51°44' E 002°07'1918.6
2015-May-02 01:34N 51°26' E 002°02'1515.2
2015-May-02 00:33N 51°11' E 001°56'2120.9
2015-May-01 23:34N 50°58' E 001°31'2320.9
2015-May-01 22:26N 50°37' E 001°13'1820.5
2015-May-01 21:33N 50°29' E 000°47'4519.9
2015-May-01 19:18N 50°28' W 000°24'1621.6
2015-May-01 18:34N 50°35' W 000°45'1514.9
2015-May-01 17:34N 50°44' W 001°04'1212.0
2015-May-01 16:33N 50°51' W 001°20'5 4.6
2015-May-01 15:30N 50°54' W 001°26'0 0.0
2015-May-01 14:33N 50°54' W 001°26'0 0.0
2015-May-01 13:27N 50°54' W 001°26'0 0.0
2015-May-01 12:33N 50°54' W 001°26'0 0.0
2015-May-01 11:30N 50°54' W 001°26'0 0.0
2015-May-01 10:27N 50°54' W 001°26'0 0.0
2015-May-01 09:33N 50°54' W 001°26'0 0.0
2015-May-01 08:30N 50°54' W 001°26'0 0.0
2015-May-01 07:33N 50°54' W 001°26'0 0.0
2015-May-01 06:21N 50°54' W 001°26'0 0.0
2015-May-01 05:33N 50°54' W 001°26'4 3.6
2015-May-01 04:33N 50°52' W 001°22'9 9.1
2015-May-01 03:33N 50°46' W 001°11'1111.0
2015-May-01 02:33N 50°38' W 000°58'1010.1
2015-May-01 01:33N 50°30' W 001°08'1212.1
2015-May-01 00:33N 50°25' W 001°25'1110.9
2015-Apr-30 23:33N 50°20' W 001°40'1111.1
2015-Apr-30 22:34N 50°15' W 001°56'1212.2
2015-Apr-30 21:34N 50°06' W 002°09'1211.9
2015-Apr-30 20:33N 49°57' W 002°21'16114.6
2015-Apr-30 09:33N 48°19' W 005°35'57715.6
2015-Apr-28 20:33N 39°10' W 009°43'1616.1
2015-Apr-28 19:34N 38°54' W 009°43'1615.8
2015-Apr-28 18:33N 38°39' W 009°40'1515.0
2015-Apr-28 17:33N 38°38' W 009°21'1111.3
2015-Apr-28 16:33N 38°42' W 009°08'0 0.0
2015-Apr-28 15:33N 38°42' W 009°08'0 0.0
2015-Apr-28 14:33N 38°42' W 009°08'0 0.0
2015-Apr-28 13:33N 38°42' W 009°08'0 0.0
2015-Apr-28 12:31N 38°42' W 009°08'0 0.0
2015-Apr-28 11:33N 38°42' W 009°08'0 0.0
2015-Apr-28 10:31N 38°42' W 009°08'0 0.0
2015-Apr-28 09:31N 38°42' W 009°08'0 0.0
2015-Apr-28 08:33N 38°42' W 009°08'1 1.4
2015-Apr-28 07:34N 38°42' W 009°09'1211.9
2015-Apr-28 06:33N 38°37' W 009°23'1717.1
2015-Apr-28 05:33N 38°23' W 009°37'1919.1
2015-Apr-28 04:33N 38°06' W 009°47'41619.3
2015-Apr-27 07:00N 31°48' W 013°18'   020 / 101018.610.8 0.517.511.117.0
Track history (hours):
 
Tides and Currents Weather Stations Pressure Air Temp Water Temp Dewpoint Dewpoint Depression Visibility Wind Speed Wind Dir Waves Ship Positions

Azure

Last reported at 2015-May-02 23:33 UTC. Time now 2015-May-05 06:13 UTC.
Position N 59°08' E 004°12'.

Length 289 m; draft 8.6 m.

Type: Ship. MMSI: 310610000.

Date/timePositionNaut miles runAvg speedWind from/ knotsBaromVisibWave heightAir tempDewpointWater temp
2015-May-02 23:33N 59°08' E 004°12'11124.3
2015-May-02 19:00N 57°18' E 003°42'28220.5 360 / 171013.710.8 7.1 5.1 9.0
2015-May-02 05:15N 52°40' E 002°24'1420.2
2015-May-02 04:33N 52°26' E 002°20'2921.3
2015-May-02 03:12N 51°57' E 002°15'1421.5
2015-May-02 02:33N 51°44' E 002°07'1918.6
2015-May-02 01:34N 51°26' E 002°02'1515.2
2015-May-02 00:33N 51°11' E 001°56'2120.9
2015-May-01 23:34N 50°58' E 001°31'2320.9
2015-May-01 22:26N 50°37' E 001°13'1820.5
2015-May-01 21:33N 50°29' E 000°47'4519.9
2015-May-01 19:18N 50°28' W 000°24'1621.6
2015-May-01 18:34N 50°35' W 000°45'1514.9
2015-May-01 17:34N 50°44' W 001°04'1212.0
2015-May-01 16:33N 50°51' W 001°20'5 4.6
2015-May-01 15:30N 50°54' W 001°26'0 0.0
2015-May-01 14:33N 50°54' W 001°26'0 0.0
2015-May-01 13:27N 50°54' W 001°26'0 0.0
2015-May-01 12:33N 50°54' W 001°26'0 0.0
2015-May-01 11:30N 50°54' W 001°26'0 0.0
2015-May-01 10:27N 50°54' W 001°26'0 0.0
2015-May-01 09:33N 50°54' W 001°26'0 0.0
2015-May-01 08:30N 50°54' W 001°26'0 0.0
2015-May-01 07:33N 50°54' W 001°26'0 0.0
2015-May-01 06:21N 50°54' W 001°26'0 0.0
2015-May-01 05:33N 50°54' W 001°26'4 3.6
2015-May-01 04:33N 50°52' W 001°22'9 9.1
2015-May-01 03:33N 50°46' W 001°11'1111.0
2015-May-01 02:33N 50°38' W 000°58'1010.1
2015-May-01 01:33N 50°30' W 001°08'1212.1
2015-May-01 00:33N 50°25' W 001°25'1110.9
2015-Apr-30 23:33N 50°20' W 001°40'1111.1
2015-Apr-30 22:34N 50°15' W 001°56'1212.2
2015-Apr-30 21:34N 50°06' W 002°09'1211.9
2015-Apr-30 20:33N 49°57' W 002°21'16114.6
2015-Apr-30 09:33N 48°19' W 005°35'57715.6
2015-Apr-28 20:33N 39°10' W 009°43'1616.1
2015-Apr-28 19:34N 38°54' W 009°43'1615.8
2015-Apr-28 18:33N 38°39' W 009°40'1515.0
2015-Apr-28 17:33N 38°38' W 009°21'1111.3
2015-Apr-28 16:33N 38°42' W 009°08'0 0.0
2015-Apr-28 15:33N 38°42' W 009°08'0 0.0
2015-Apr-28 14:33N 38°42' W 009°08'0 0.0
2015-Apr-28 13:33N 38°42' W 009°08'0 0.0
2015-Apr-28 12:31N 38°42' W 009°08'0 0.0
2015-Apr-28 11:33N 38°42' W 009°08'0 0.0
2015-Apr-28 10:31N 38°42' W 009°08'0 0.0
2015-Apr-28 09:31N 38°42' W 009°08'0 0.0
2015-Apr-28 08:33N 38°42' W 009°08'1 1.4
2015-Apr-28 07:34N 38°42' W 009°09'1211.9
2015-Apr-28 06:33N 38°37' W 009°23'1717.1
2015-Apr-28 05:33N 38°23' W 009°37'1919.1
2015-Apr-28 04:33N 38°06' W 009°47'41619.3
2015-Apr-27 07:00N 31°48' W 013°18'   020 / 101018.610.8 0.517.511.117.0

Dump ship's entire track history